Startpagina
METAR-TAF:

METAR-TAF

Vliegvelden :

Aeroporto di Genova Cristoforo Colombo

Genua, Italië

breedte: 44-25N, lengte: 008-51E, hoogte: 2 m

Actueel weer

Dit bericht is 17 minuten geleden gemaakt, om 01:20 UTC
Wind 17 kt uit het noordoosten
Temperatuur 8°C
Vochtigheid 53%
Druk 1026 hPa
Zicht 10 km of meer
Weinig wolken op 8000 ft

METAR: LIMJ 240120Z 04017KT 9999 FEW080 08/M01 Q1026

Tijdstip: 02:37 (01:37 UTC)

Verwachting

Dit bericht is 2 uur en het 37 minuten geleden gemaakt, om 23:00 UTC
Verwachting geldig van 24 om 00 UTC tot 24 om 24 UTC
Wind 15 kt uit het noordnoordoosten
Zicht 10 km of meer
Verspreide wolken op 2500 ft
Verspreide wolken op 6000 ft
Wijzigt naar
van 24 om 08 UTC tot 24 om 10 UTC
Gebroken wolken op 1000 ft
Gebroken wolken op 5000 ft
regen

TAF: LIMJ 232300Z 2400/2424 03015KT 9999 SCT025 SCT060 BECMG 2408/2410 RA BKN010 BKN050

Waarnemingen en weersverwachtingen van meer dan 4000 vliegvelden (METAR en TAF).

De beschikbare stations zijn de gele en rode punten op de kaart.

Ga met uw muis naar het station om de naam te zien.

Klik dan om waarnemingen en weersverwachtingen te zien.

kaart wijzigen: klik op de groene knoppen met een zwart kruis om in te zoomen, op de groene knop met een streepje om uit te zoomen of op de groene pijlen voor aangrenzende kaarten.


METAR-TAF: